createdAt,value
2024-01-15T00:02:07.328Z,95897.16
2024-01-15T00:04:39.928Z,95903.13
2024-01-15T00:07:07.803Z,95896.84
2024-01-15T00:09:35.521Z,95883.75
2024-01-15T00:12:03.945Z,95875.97
2024-01-15T00:14:31.503Z,95871.72
2024-01-15T00:16:59.136Z,95863.38
2024-01-15T00:19:28.197Z,95876.41
2024-01-15T00:21:58.337Z,95880.31
2024-01-15T00:24:25.909Z,95891.31
2024-01-15T00:26:54.478Z,95906.47
2024-01-15T00:29:22.047Z,95898.38
2024-01-15T00:31:49.693Z,95901.00
2024-01-15T00:34:17.461Z,95899.91
2024-01-15T00:36:45.145Z,95888.69
2024-01-15T00:39:14.301Z,95887.13
2024-01-15T00:41:41.935Z,95892.59
2024-01-15T00:44:09.558Z,95893.41
2024-01-15T00:46:44.736Z,95893.69
2024-01-15T00:49:12.807Z,95902.06
2024-01-15T00:51:40.723Z,95894.78
2024-01-15T00:54:08.532Z,95888.78
2024-01-15T00:56:37.493Z,95894.34
2024-01-15T00:59:05.072Z,95890.94
2024-01-15T01:01:33.933Z,95901.94
2024-01-15T01:04:01.737Z,95899.06
2024-01-15T01:06:31.304Z,95896.69
2024-01-15T01:08:59.731Z,95900.06
2024-01-15T01:11:27.310Z,95900.84
2024-01-15T01:13:57.689Z,95906.34
2024-01-15T01:16:25.234Z,95907.66
2024-01-15T01:18:53.136Z,95904.00
2024-01-15T01:21:21.075Z,95900.09
2024-01-15T01:23:48.750Z,95899.81
2024-01-15T01:26:17.660Z,95897.97
2024-01-15T01:28:45.239Z,95909.47
2024-01-15T01:31:14.258Z,95911.03
2024-01-15T01:33:42.062Z,95907.91
2024-01-15T01:36:10.771Z,95906.06
2024-01-15T01:38:38.646Z,95913.38
2024-01-15T01:41:06.406Z,95919.41
2024-01-15T01:43:34.011Z,95925.66
2024-01-15T01:46:04.003Z,95927.50
2024-01-15T01:48:34.202Z,95935.00
2024-01-15T01:51:05.052Z,95930.34
2024-01-15T01:53:35.915Z,95926.97
2024-01-15T01:56:05.175Z,95937.63
2024-01-15T01:58:33.763Z,95947.56
2024-01-15T02:01:01.927Z,95939.19
2024-01-15T02:03:30.483Z,95934.53
2024-01-15T02:06:01.460Z,95943.81
2024-01-15T02:08:29.186Z,95943.81
2024-01-15T02:10:56.752Z,95945.44
2024-01-15T02:13:24.384Z,95945.19
2024-01-15T02:15:52.070Z,95942.03
2024-01-15T02:18:19.898Z,95945.72
2024-01-15T02:20:47.660Z,95941.03
2024-01-15T02:23:17.657Z,95941.78
2024-01-15T02:25:47.114Z,95942.03
2024-01-15T02:28:16.551Z,95945.97
2024-01-15T02:30:45.603Z,95934.53
2024-01-15T02:33:14.292Z,95941.03
2024-01-15T02:35:42.280Z,95927.44
2024-01-15T02:38:10.264Z,95933.97
2024-01-15T02:40:40.199Z,95919.31
2024-01-15T02:43:07.814Z,95921.94
2024-01-15T02:45:35.486Z,95926.69
2024-01-15T02:48:03.250Z,95924.88
2024-01-15T02:50:30.844Z,95920.97
2024-01-15T02:52:58.439Z,95919.91
2024-01-15T02:55:25.997Z,95916.72
2024-01-15T02:57:54.917Z,95912.84
2024-01-15T03:00:22.687Z,95902.94
2024-01-15T03:02:52.303Z,95907.88
2024-01-15T03:05:20.022Z,95904.50
2024-01-15T03:07:47.659Z,95893.31
2024-01-15T03:10:15.318Z,95900.56
2024-01-15T03:12:43.018Z,95894.06
2024-01-15T03:15:12.269Z,95895.03
2024-01-15T03:17:39.887Z,95894.03
2024-01-15T03:20:08.633Z,95895.88
2024-01-15T03:22:36.275Z,95890.16
2024-01-15T03:25:04.177Z,95887.56
2024-01-15T03:27:31.772Z,95892.78
2024-01-15T03:29:59.356Z,95900.06
2024-01-15T03:32:28.291Z,95895.84
2024-01-15T03:34:55.890Z,95896.91
2024-01-15T03:37:23.455Z,95893.22
2024-01-15T03:39:51.179Z,95894.81
2024-01-15T03:42:18.979Z,95889.13
2024-01-15T03:44:46.604Z,95891.19
2024-01-15T03:47:14.190Z,95888.09
2024-01-15T03:49:43.216Z,95891.19
2024-01-15T03:52:10.947Z,95894.34
2024-01-15T03:54:38.880Z,95898.00
2024-01-15T03:57:06.787Z,95883.91
2024-01-15T03:59:34.741Z,95891.22
2024-01-15T04:02:02.327Z,95892.25
2024-01-15T04:04:30.111Z,95888.09
2024-01-15T04:06:59.186Z,95894.84
2024-01-15T04:09:26.917Z,95890.69
2024-01-15T04:11:54.487Z,95887.53
2024-01-15T04:14:22.060Z,95887.03
2024-01-15T04:16:49.615Z,95888.31
2024-01-15T04:19:17.280Z,95904.50
2024-01-15T04:21:45.110Z,95895.75
2024-01-15T04:24:14.183Z,95891.66
2024-01-15T04:26:41.823Z,95888.22
2024-01-15T04:29:09.434Z,95883.72
2024-01-15T04:31:37.193Z,95898.06
2024-01-15T04:34:04.967Z,95896.41
2024-01-15T04:36:32.644Z,95889.13
2024-01-15T04:39:00.307Z,95894.13
2024-01-15T04:41:29.235Z,95886.53
2024-01-15T04:43:56.868Z,95882.75
2024-01-15T04:46:24.649Z,95882.50
2024-01-15T04:48:52.318Z,95879.00
2024-01-15T04:51:20.055Z,95883.28
2024-01-15T04:53:47.624Z,95880.47
2024-01-15T04:56:15.181Z,95882.31
2024-01-15T04:58:44.054Z,95869.81
2024-01-15T05:01:12.183Z,95878.19
2024-01-15T05:03:40.302Z,95874.53
2024-01-15T05:06:08.508Z,95867.75
2024-01-15T05:08:36.129Z,95865.13
2024-01-15T05:11:03.775Z,95872.69
2024-01-15T05:13:31.327Z,95866.16
2024-01-15T05:16:00.414Z,95873.97
2024-01-15T05:18:28.341Z,95856.75
2024-01-15T05:20:56.015Z,95871.34
2024-01-15T05:23:23.639Z,95867.44
2024-01-15T05:25:51.526Z,95864.00
2024-01-15T05:28:19.252Z,95864.06
2024-01-15T05:30:47.000Z,95866.41
2024-01-15T05:33:16.174Z,95861.22
2024-01-15T05:35:43.956Z,95859.13
2024-01-15T05:38:11.493Z,95862.53
2024-01-15T05:40:39.133Z,95865.09
2024-01-15T05:43:06.690Z,95859.56
2024-01-15T05:45:36.568Z,95851.03
2024-01-15T05:48:05.040Z,95852.59
2024-01-15T05:50:34.057Z,95847.34
2024-01-15T05:53:01.660Z,95861.19
2024-01-15T05:55:29.199Z,95869.31
2024-01-15T05:57:56.855Z,95876.88
2024-01-15T06:00:24.559Z,95861.47
2024-01-15T06:02:52.376Z,95860.44
2024-01-15T06:05:20.050Z,95855.75
2024-01-15T06:07:48.944Z,95863.56
2024-01-15T06:10:16.674Z,95861.50
2024-01-15T06:12:45.626Z,95866.16
2024-01-15T06:15:14.059Z,95852.09
2024-01-15T06:17:41.742Z,95857.03
2024-01-15T06:20:10.837Z,95853.66
2024-01-15T06:22:40.168Z,95854.44
2024-01-15T06:25:10.226Z,95851.56
2024-01-15T06:27:37.822Z,95855.75
2024-01-15T06:30:07.284Z,95857.84
2024-01-15T06:32:34.945Z,95868.00
2024-01-15T06:35:02.583Z,95866.13
2024-01-15T06:37:30.195Z,95857.03
2024-01-15T06:39:58.057Z,95857.81
2024-01-15T06:42:27.114Z,95861.47
2024-01-15T06:44:54.772Z,95854.16
2024-01-15T06:47:22.411Z,95847.38
2024-01-15T06:49:51.628Z,95855.47
2024-01-15T06:52:19.404Z,95858.84
2024-01-15T06:54:47.045Z,95856.53
2024-01-15T06:57:14.746Z,95859.38
2024-01-15T06:59:43.653Z,95852.38
2024-01-15T07:02:11.203Z,95851.06
2024-01-15T07:04:41.340Z,95855.44
2024-01-15T07:07:10.460Z,95851.28
2024-01-15T07:09:38.050Z,95837.50
2024-01-15T07:12:06.117Z,95845.84
2024-01-15T07:14:33.718Z,95850.25
2024-01-15T07:17:02.656Z,95845.31
2024-01-15T07:19:30.370Z,95855.75
2024-01-15T07:21:58.174Z,95864.06
2024-01-15T07:24:25.873Z,95848.09
2024-01-15T07:26:53.432Z,95850.50
2024-01-15T07:29:21.048Z,95857.31
2024-01-15T07:31:50.919Z,95858.88
2024-01-15T07:34:20.224Z,95860.94
2024-01-15T07:36:47.961Z,95864.09
2024-01-15T07:39:16.007Z,95854.19
2024-01-15T07:41:43.678Z,95858.06
2024-01-15T07:44:11.211Z,95860.16
2024-01-15T07:46:38.814Z,95867.22
2024-01-15T07:49:06.844Z,95856.78
2024-01-15T07:51:35.923Z,95868.53
2024-01-15T07:54:03.527Z,95857.06
2024-01-15T07:56:31.283Z,95860.97
2024-01-15T07:58:58.910Z,95868.78
2024-01-15T08:01:26.575Z,95869.81
2024-01-15T08:03:55.784Z,95885.50
2024-01-15T08:06:23.684Z,95880.28
2024-01-15T08:08:52.802Z,95875.81
2024-01-15T08:11:20.361Z,95884.44
2024-01-15T08:13:47.921Z,95883.66
2024-01-15T08:16:15.579Z,95884.69
2024-01-15T08:18:44.092Z,95876.63
2024-01-15T08:21:11.709Z,95876.06
2024-01-15T08:23:39.546Z,95875.56
2024-01-15T08:26:08.469Z,95868.78
2024-01-15T08:28:37.216Z,95878.19
2024-01-15T08:31:06.689Z,95884.97
2024-01-15T08:33:34.469Z,95882.34
2024-01-15T08:36:02.130Z,95896.44
2024-01-15T08:38:29.665Z,95896.38
2024-01-15T08:40:59.894Z,95893.81
2024-01-15T08:43:28.820Z,95896.44
2024-01-15T08:45:56.476Z,95901.13
2024-01-15T08:48:24.264Z,95898.00
2024-01-15T08:50:53.035Z,95895.13
2024-01-15T08:53:20.909Z,95890.63
2024-01-15T08:55:48.707Z,95890.94
2024-01-15T08:58:16.871Z,95891.22
2024-01-15T09:00:46.153Z,95896.94
2024-01-15T09:03:13.973Z,95898.00
2024-01-15T09:05:41.928Z,95896.41
2024-01-15T09:08:09.627Z,95904.25
2024-01-15T09:10:37.397Z,95903.47
2024-01-15T09:13:05.772Z,95898.50
2024-01-15T09:15:33.553Z,95896.72
2024-01-15T09:18:06.192Z,95884.19
2024-01-15T09:20:35.633Z,95879.22
2024-01-15T09:23:03.675Z,95887.03
2024-01-15T09:25:31.317Z,95886.78
2024-01-15T09:27:59.179Z,95896.16
2024-01-15T09:30:26.882Z,95888.59
2024-01-15T09:32:54.720Z,95887.56
2024-01-15T09:35:25.152Z,95894.59
2024-01-15T09:37:53.144Z,95887.56
2024-01-15T09:40:22.597Z,95889.41
2024-01-15T09:42:50.909Z,95888.34
2024-01-15T09:45:18.758Z,95882.06
2024-01-15T09:47:47.181Z,95869.50
2024-01-15T09:50:15.823Z,95882.84
2024-01-15T09:52:45.682Z,95879.19
2024-01-15T09:55:14.934Z,95884.38
2024-01-15T09:57:43.084Z,95871.88
2024-01-15T10:00:12.897Z,95866.66
2024-01-15T10:02:41.118Z,95872.63
2024-01-15T10:05:09.374Z,95869.19
2024-01-15T10:07:39.287Z,95874.69
2024-01-15T10:10:09.651Z,95864.22
2024-01-15T10:12:38.452Z,95862.94
2024-01-15T10:15:06.927Z,95855.56
2024-01-15T10:17:34.684Z,95864.97
2024-01-15T10:20:02.791Z,95856.56
2024-01-15T10:22:30.541Z,95846.16
2024-01-15T10:24:58.619Z,95838.84
2024-01-15T10:27:27.665Z,95824.19
2024-01-15T10:29:55.264Z,95823.91
2024-01-15T10:32:24.997Z,95816.56
2024-01-15T10:34:54.943Z,95816.81
2024-01-15T10:37:24.491Z,95818.88
2024-01-15T10:39:54.367Z,95815.19
2024-01-15T10:42:23.125Z,95815.66
2024-01-15T10:44:52.184Z,95812.47
2024-01-15T10:47:20.591Z,95808.50
2024-01-15T10:49:48.415Z,95803.53
2024-01-15T10:52:16.863Z,95795.16
2024-01-15T10:54:45.797Z,95793.56
2024-01-15T10:57:14.403Z,95788.50
2024-01-15T10:59:42.001Z,95789.25
2024-01-15T11:02:11.422Z,95791.84
2024-01-15T11:04:39.375Z,95783.22
2024-01-15T11:07:07.558Z,95783.94
2024-01-15T11:09:35.229Z,95788.66
2024-01-15T11:12:11.388Z,95779.22
2024-01-15T11:14:44.679Z,95781.38
2024-01-15T11:17:14.246Z,95783.41
2024-01-15T11:19:45.793Z,95780.22
2024-01-15T11:22:58.921Z,95779.63
2024-01-15T11:25:36.048Z,95783.72
2024-01-15T11:28:03.953Z,95771.72
2024-01-15T11:30:32.010Z,95780.56
2024-01-15T11:33:01.074Z,95784.13
2024-01-15T11:35:50.466Z,95771.06
2024-01-15T11:38:29.459Z,95763.16
2024-01-15T11:40:57.453Z,95754.72
2024-01-15T11:43:25.264Z,95760.44
2024-01-15T11:45:54.587Z,95760.53
2024-01-15T11:48:25.190Z,95747.72
2024-01-15T11:50:53.340Z,95751.84
2024-01-15T11:53:35.082Z,95744.41
2024-01-15T11:56:05.082Z,95741.72
2024-01-15T11:58:33.105Z,95737.53
2024-01-15T12:01:01.081Z,95742.94
2024-01-15T12:03:30.078Z,95753.69
2024-01-15T12:05:59.050Z,95742.94
2024-01-15T12:08:28.146Z,95737.72
2024-01-15T12:10:55.803Z,95735.50
2024-01-15T12:13:23.532Z,95740.75
2024-01-15T12:15:51.590Z,95752.81
2024-01-15T12:18:20.842Z,95742.06
2024-01-15T12:20:50.865Z,95745.50
2024-01-15T12:23:19.603Z,95738.13
2024-01-15T12:25:48.164Z,95746.59
2024-01-15T12:28:16.883Z,95743.16
2024-01-15T12:30:45.715Z,95758.59
2024-01-15T12:33:13.505Z,95753.97
2024-01-15T12:35:41.074Z,95749.94
2024-01-15T12:38:09.975Z,95740.88
2024-01-15T12:40:38.241Z,95739.69
2024-01-15T12:43:07.866Z,95741.25
2024-01-15T12:45:36.540Z,95749.19
2024-01-15T12:48:04.940Z,95743.94
2024-01-15T12:50:35.125Z,95739.44
2024-01-15T12:53:03.182Z,95748.94
2024-01-15T12:55:32.188Z,95742.81
2024-01-15T12:57:59.790Z,95746.44
2024-01-15T13:00:27.863Z,95749.06
2024-01-15T13:02:55.904Z,95754.56
2024-01-15T13:05:25.278Z,95750.97
2024-01-15T13:07:53.193Z,95746.06
2024-01-15T13:10:21.635Z,95746.84
2024-01-15T13:12:51.776Z,95737.72
2024-01-15T13:15:19.529Z,95749.22
2024-01-15T13:17:47.396Z,95743.94
2024-01-15T13:20:15.087Z,95741.75
2024-01-15T13:22:45.364Z,95756.06
2024-01-15T13:25:13.445Z,95764.56
2024-01-15T13:27:42.004Z,95772.47
2024-01-15T13:30:13.548Z,95766.06
2024-01-15T13:32:41.551Z,95767.47
2024-01-15T13:35:13.988Z,95766.00
2024-01-15T13:37:42.399Z,95772.47
2024-01-15T13:40:17.157Z,95769.25
2024-01-15T13:42:45.080Z,95779.97
2024-01-15T13:45:15.521Z,95776.78
2024-01-15T13:47:44.290Z,95770.94
2024-01-15T13:50:12.189Z,95782.94
2024-01-15T13:52:39.885Z,95782.28
2024-01-15T13:55:09.906Z,95789.03
2024-01-15T13:57:37.830Z,95787.72
2024-01-15T14:00:10.854Z,95790.75
2024-01-15T14:02:39.847Z,95793.25
2024-01-15T14:05:08.582Z,95797.66
2024-01-15T14:07:36.285Z,95793.88
2024-01-15T14:10:04.975Z,95803.19
2024-01-15T14:12:32.604Z,95812.56
2024-01-15T14:15:00.181Z,95810.97
2024-01-15T14:17:27.786Z,95805.66
2024-01-15T14:19:57.458Z,95813.53
2024-01-15T14:22:25.786Z,95815.97
2024-01-15T14:24:53.983Z,95824.56
2024-01-15T14:27:22.652Z,95834.72
2024-01-15T14:29:50.227Z,95842.53
2024-01-15T14:32:17.774Z,95839.97
2024-01-15T14:34:45.621Z,95852.69
2024-01-15T14:37:14.579Z,95856.03
2024-01-15T14:39:42.173Z,95857.38
2024-01-15T14:42:09.954Z,95864.19
2024-01-15T14:44:39.182Z,95870.19
2024-01-15T14:47:06.951Z,95881.88
2024-01-15T14:49:34.820Z,95878.09
2024-01-15T14:52:02.526Z,95886.13
2024-01-15T14:54:31.505Z,95893.53
2024-01-15T14:56:59.068Z,95912.94
2024-01-15T14:59:26.752Z,95911.13
2024-01-15T15:01:55.020Z,95906.63
2024-01-15T15:04:22.689Z,95907.19
2024-01-15T15:06:51.072Z,95903.00
2024-01-15T15:09:18.675Z,95912.94
2024-01-15T15:11:47.633Z,95917.19
2024-01-15T15:14:15.296Z,95914.06
2024-01-15T15:16:43.022Z,95916.13
2024-01-15T15:19:10.736Z,95918.22
2024-01-15T15:21:38.939Z,95924.00
2024-01-15T15:24:06.947Z,95922.69
2024-01-15T15:26:34.528Z,95920.06
2024-01-15T15:29:03.537Z,95913.63
2024-01-15T15:31:31.191Z,95906.00
2024-01-15T15:33:59.095Z,95921.97
2024-01-15T15:36:26.905Z,95920.41
2024-01-15T15:38:58.409Z,95936.31
2024-01-15T15:41:28.849Z,95934.50
2024-01-15T15:43:56.431Z,95938.66
2024-01-15T15:46:25.379Z,95946.22
2024-01-15T15:48:53.699Z,95941.25
2024-01-15T15:51:21.360Z,95961.88
2024-01-15T15:53:49.324Z,95968.41
2024-01-15T15:56:18.174Z,95955.38
2024-01-15T15:58:45.733Z,95959.59
2024-01-15T16:01:13.384Z,95974.22
2024-01-15T16:03:42.456Z,95976.31
2024-01-15T16:06:10.164Z,95980.47
2024-01-15T16:08:37.895Z,95983.59
2024-01-15T16:11:05.551Z,95978.28
2024-01-15T16:13:33.352Z,95985.75
2024-01-15T16:23:09.218Z,95993.19
2024-01-15T16:23:22.417Z,95991.78
2024-01-15T16:23:37.368Z,95980.31
2024-01-15T16:24:33.979Z,95985.97
2024-01-15T16:29:41.573Z,95990.94
2024-01-15T16:32:09.192Z,96006.59
2024-01-15T16:34:38.184Z,95995.13
2024-01-15T16:37:07.463Z,95990.94
2024-01-15T16:39:35.149Z,95999.78
2024-01-15T16:42:02.742Z,96002.19
2024-01-15T16:44:31.658Z,96003.00
2024-01-15T16:47:03.709Z,95993.41
2024-01-15T16:49:33.629Z,95993.59
2024-01-15T16:52:02.797Z,96002.56
2024-01-15T16:54:30.989Z,95999.28
2024-01-15T16:56:58.558Z,95996.66
2024-01-15T16:59:26.276Z,96009.75
2024-01-15T17:01:53.908Z,96021.03
2024-01-15T17:04:21.502Z,96019.50
2024-01-15T17:06:49.073Z,96012.47
2024-01-15T17:09:17.982Z,96020.22
2024-01-15T17:11:45.648Z,96031.56
2024-01-15T17:14:13.304Z,96039.19
2024-01-15T17:16:40.904Z,96038.94
2024-01-15T17:19:09.352Z,96045.75
2024-01-15T17:21:36.914Z,96037.13
2024-01-15T17:24:05.134Z,96049.03
2024-01-15T17:26:34.186Z,96055.09
2024-01-15T17:29:01.781Z,96043.88
2024-01-15T17:31:30.801Z,96049.47
2024-01-15T17:34:00.145Z,96045.28
2024-01-15T17:36:27.898Z,96046.47
2024-01-15T17:38:55.513Z,96050.97
2024-01-15T17:41:23.287Z,96058.03
2024-01-15T17:43:52.308Z,96058.84
2024-01-15T17:46:20.238Z,96060.41
2024-01-15T17:48:48.487Z,96068.44
2024-01-15T17:51:18.561Z,96070.78
2024-01-15T17:53:46.242Z,96075.72
2024-01-15T17:56:13.959Z,96072.31
2024-01-15T17:58:41.929Z,96082.19
2024-01-15T18:01:12.008Z,96076.91
2024-01-15T18:03:40.327Z,96090.78
2024-01-15T18:06:08.742Z,96086.91
2024-01-15T18:08:36.447Z,96092.63
2024-01-15T18:11:05.656Z,96097.84
2024-01-15T18:13:33.521Z,96100.50
2024-01-15T18:16:01.183Z,96108.34
2024-01-15T18:18:30.447Z,96119.34
2024-01-15T18:20:58.065Z,96125.38
2024-01-15T18:23:25.716Z,96130.84
2024-01-15T18:25:53.283Z,96128.47
2024-01-15T18:28:21.005Z,96139.84
2024-01-15T18:30:48.705Z,96141.63
2024-01-15T18:33:16.352Z,96141.50
2024-01-15T18:35:45.542Z,96145.00
2024-01-15T18:38:13.202Z,96149.22
2024-01-15T18:40:40.892Z,96162.28
2024-01-15T18:43:08.447Z,96162.31
2024-01-15T18:45:37.801Z,96166.50
2024-01-15T18:48:06.068Z,96153.91
2024-01-15T18:50:33.841Z,96171.63
2024-01-15T18:53:02.884Z,96163.47
2024-01-15T18:55:30.514Z,96160.66
2024-01-15T18:58:00.473Z,96166.91
2024-01-15T19:00:28.422Z,96177.63
2024-01-15T19:02:59.146Z,96179.19
2024-01-15T19:05:27.269Z,96186.94
2024-01-15T19:07:55.092Z,96182.00
2024-01-15T19:10:24.227Z,96191.00
2024-01-15T19:12:51.825Z,96195.19
2024-01-15T19:15:21.299Z,96194.78
2024-01-15T19:17:49.900Z,96194.81
2024-01-15T19:20:18.227Z,96201.50
2024-01-15T19:22:45.871Z,96204.34
2024-01-15T19:25:13.621Z,96208.69
2024-01-15T19:27:45.487Z,96208.81
2024-01-15T19:30:15.084Z,96214.28
2024-01-15T19:32:43.169Z,96218.13
2024-01-15T19:35:11.874Z,96215.03
2024-01-15T19:37:39.830Z,96211.56
2024-01-15T19:40:08.692Z,96205.09
2024-01-15T19:42:36.320Z,96212.72
2024-01-15T19:45:06.091Z,96209.53
2024-01-15T19:47:34.030Z,96219.63
2024-01-15T19:50:01.701Z,96221.00
2024-01-15T19:52:29.286Z,96232.88
2024-01-15T19:54:58.532Z,96233.91
2024-01-15T19:57:26.247Z,96242.78
2024-01-15T19:59:55.496Z,96242.78
2024-01-15T20:02:24.484Z,96241.66
2024-01-15T20:04:52.068Z,96245.78
2024-01-15T20:07:19.656Z,96244.56
2024-01-15T20:09:47.643Z,96245.06
2024-01-15T20:12:15.260Z,96256.94
2024-01-15T20:14:42.855Z,96249.38
2024-01-15T20:17:10.483Z,96271.69
2024-01-15T20:19:39.480Z,96262.72
2024-01-15T20:22:07.233Z,96260.25
2024-01-15T20:24:34.787Z,96262.66
2024-01-15T20:27:02.322Z,96263.91
2024-01-15T20:29:29.891Z,96265.22
2024-01-15T20:31:57.684Z,96265.94
2024-01-15T20:34:25.520Z,96276.34
2024-01-15T20:36:54.466Z,96265.75
2024-01-15T20:39:22.242Z,96263.47
2024-01-15T20:41:50.306Z,96264.22
2024-01-15T20:44:19.614Z,96267.88
2024-01-15T20:46:47.461Z,96258.63
2024-01-15T20:49:15.442Z,96260.91
2024-01-15T20:51:43.016Z,96259.41
2024-01-15T20:54:11.993Z,96264.41
2024-01-15T20:56:39.578Z,96272.56
2024-01-15T20:59:07.250Z,96285.91
2024-01-15T21:01:34.817Z,96288.41
2024-01-15T21:04:02.488Z,96292.03
2024-01-15T21:06:30.179Z,96290.91
2024-01-15T21:08:57.849Z,96297.59
2024-01-15T21:11:27.715Z,96301.66
2024-01-15T21:13:55.400Z,96301.03
2024-01-15T21:16:22.974Z,96313.44
2024-01-15T21:18:51.575Z,96311.28
2024-01-15T21:21:19.739Z,96309.59
2024-01-15T21:23:47.400Z,96318.41
2024-01-15T21:26:15.304Z,96310.56
2024-01-15T21:28:44.374Z,96322.75
2024-01-15T21:31:12.010Z,96323.78
2024-01-15T21:33:42.865Z,96329.28
2024-01-15T21:36:10.485Z,96330.00
2024-01-15T21:38:38.144Z,96326.84
2024-01-15T21:41:06.281Z,96326.50
2024-01-15T21:43:33.872Z,96336.47
2024-01-15T21:46:02.840Z,96334.38
2024-01-15T21:48:30.603Z,96337.81
2024-01-15T21:50:58.232Z,96333.88
2024-01-15T21:53:25.827Z,96337.75
2024-01-15T21:55:53.435Z,96341.91
2024-01-15T21:58:21.164Z,96336.19
2024-01-15T22:00:48.935Z,96337.22
2024-01-15T22:03:18.541Z,96334.38
2024-01-15T22:05:46.162Z,96336.47
2024-01-15T22:08:13.817Z,96339.50
2024-01-15T22:10:41.784Z,96339.53
2024-01-15T22:13:09.673Z,96332.66
2024-01-15T22:15:38.041Z,96335.75
2024-01-15T22:18:06.036Z,96333.69
2024-01-15T22:20:35.132Z,96333.94
2024-01-15T22:23:02.717Z,96330.00
2024-01-15T22:25:32.952Z,96335.47
2024-01-15T22:28:00.668Z,96337.63
2024-01-15T22:30:28.327Z,96333.03
2024-01-15T22:32:56.093Z,96337.84
2024-01-15T22:35:23.813Z,96339.63
2024-01-15T22:37:53.198Z,96344.53
2024-01-15T22:40:20.985Z,96337.50
2024-01-15T22:42:48.574Z,96348.50
2024-01-15T22:45:17.540Z,96350.97
2024-01-15T22:47:45.700Z,96355.63
2024-01-15T22:50:14.256Z,96362.34
2024-01-15T22:52:42.052Z,96371.47
2024-01-15T22:55:11.619Z,96368.41
2024-01-15T22:57:39.161Z,96369.22
2024-01-15T23:00:13.471Z,96370.09
2024-01-15T23:02:41.080Z,96367.69
2024-01-15T23:05:09.626Z,96361.19
2024-01-15T23:07:37.652Z,96356.94
2024-01-15T23:10:08.039Z,96356.06
2024-01-15T23:12:37.570Z,96359.16
2024-01-15T23:15:06.080Z,96355.50
2024-01-15T23:17:33.752Z,96355.28
2024-01-15T23:20:01.425Z,96352.22
2024-01-15T23:22:29.007Z,96359.63
2024-01-15T23:24:55.575Z,96360.81
2024-01-15T23:27:23.152Z,96356.88
2024-01-15T23:29:52.054Z,96352.09
2024-01-15T23:32:19.876Z,96358.25
2024-01-15T23:34:47.439Z,96356.09
2024-01-15T23:37:15.865Z,96358.63
2024-01-15T23:39:43.407Z,96355.53
2024-01-15T23:42:14.805Z,96359.63
2024-01-15T23:44:42.973Z,96344.34
2024-01-15T23:47:12.106Z,96352.00
2024-01-15T23:49:40.360Z,96352.31
2024-01-15T23:52:08.540Z,96354.94
2024-01-15T23:54:37.564Z,96361.06
2024-01-15T23:57:05.452Z,96364.06
2024-01-15T23:59:35.161Z,96379.03
